sensor_id;sensor_type;location;lat;lon;timestamp;temperature;humidity
7290;DHT22;63176;52.678;13.250;2022-10-22T00:00:05;13.40;22.30
7290;DHT22;63176;52.678;13.250;2022-10-22T00:02:31;13.40;17.50
7290;DHT22;63176;52.678;13.250;2022-10-22T00:04:57;13.40;1.00
7290;DHT22;63176;52.678;13.250;2022-10-22T00:07:22;13.40;9.60
7290;DHT22;63176;52.678;13.250;2022-10-22T00:09:48;13.40;1.00
7290;DHT22;63176;52.678;13.250;2022-10-22T00:12:14;13.40;1.00
7290;DHT22;63176;52.678;13.250;2022-10-22T00:14:41;13.40;1.00
7290;DHT22;63176;52.678;13.250;2022-10-22T00:17:07;13.30;1.00
7290;DHT22;63176;52.678;13.250;2022-10-22T00:19:32;13.30;1.00
7290;DHT22;63176;52.678;13.250;2022-10-22T00:21:58;13.30;1.00
7290;DHT22;63176;52.678;13.250;2022-10-22T00:24:24;13.20;1.00
7290;DHT22;63176;52.678;13.250;2022-10-22T00:26:50;13.30;1.00
7290;DHT22;63176;52.678;13.250;2022-10-22T00:29:16;13.20;1.00
7290;DHT22;63176;52.678;13.250;2022-10-22T00:31:45;13.20;1.00
7290;DHT22;63176;52.678;13.250;2022-10-22T00:34:18;13.20;1.00
7290;DHT22;63176;52.678;13.250;2022-10-22T00:36:46;13.20;1.00
7290;DHT22;63176;52.678;13.250;2022-10-22T00:39:13;13.20;1.00
7290;DHT22;63176;52.678;13.250;2022-10-22T00:41:41;13.20;1.00
7290;DHT22;63176;52.678;13.250;2022-10-22T00:44:07;13.20;1.00
7290;DHT22;63176;52.678;13.250;2022-10-22T00:46:32;13.10;1.00
7290;DHT22;63176;52.678;13.250;2022-10-22T00:49:00;13.20;1.00
7290;DHT22;63176;52.678;13.250;2022-10-22T00:51:32;13.10;1.00
7290;DHT22;63176;52.678;13.250;2022-10-22T00:54:04;13.10;1.00
7290;DHT22;63176;52.678;13.250;2022-10-22T00:56:32;13.10;1.00
7290;DHT22;63176;52.678;13.250;2022-10-22T00:58:58;13.10;1.00
7290;DHT22;63176;52.678;13.250;2022-10-22T01:01:30;13.00;1.00
7290;DHT22;63176;52.678;13.250;2022-10-22T01:03:56;13.00;1.00
7290;DHT22;63176;52.678;13.250;2022-10-22T01:06:27;12.90;1.00
7290;DHT22;63176;52.678;13.250;2022-10-22T01:22:12;12.80;1.00
7290;DHT22;63176;52.678;13.250;2022-10-22T01:27:39;12.80;1.00
7290;DHT22;63176;52.678;13.250;2022-10-22T01:30:11;12.80;99.90
7290;DHT22;63176;52.678;13.250;2022-10-22T01:33:01;12.80;99.90
7290;DHT22;63176;52.678;13.250;2022-10-22T01:35:34;12.70;99.90
7290;DHT22;63176;52.678;13.250;2022-10-22T01:38:08;12.70;99.90
7290;DHT22;63176;52.678;13.250;2022-10-22T01:40:35;12.80;99.90
7290;DHT22;63176;52.678;13.250;2022-10-22T01:43:04;12.70;99.90
7290;DHT22;63176;52.678;13.250;2022-10-22T01:45:37;12.70;99.90
7290;DHT22;63176;52.678;13.250;2022-10-22T01:48:29;12.70;99.90
7290;DHT22;63176;52.678;13.250;2022-10-22T01:53:50;12.70;99.90
7290;DHT22;63176;52.678;13.250;2022-10-22T01:56:39;12.70;99.90
7290;DHT22;63176;52.678;13.250;2022-10-22T02:02:10;12.70;99.90
7290;DHT22;63176;52.678;13.250;2022-10-22T02:04:45;12.70;99.90
7290;DHT22;63176;52.678;13.250;2022-10-22T02:07:15;12.70;99.90
7290;DHT22;63176;52.678;13.250;2022-10-22T02:09:43;12.60;16.70
7290;DHT22;63176;52.678;13.250;2022-10-22T02:12:10;12.60;1.00
7290;DHT22;63176;52.678;13.250;2022-10-22T02:14:40;12.60;1.00
7290;DHT22;63176;52.678;13.250;2022-10-22T02:17:10;12.50;1.00
7290;DHT22;63176;52.678;13.250;2022-10-22T02:19:43;12.60;1.00
7290;DHT22;63176;52.678;13.250;2022-10-22T02:22:10;12.50;1.00
7290;DHT22;63176;52.678;13.250;2022-10-22T02:24:36;12.50;1.00
7290;DHT22;63176;52.678;13.250;2022-10-22T02:32:10;12.50;1.00
7290;DHT22;63176;52.678;13.250;2022-10-22T02:34:38;12.60;1.00
7290;DHT22;63176;52.678;13.250;2022-10-22T02:37:04;12.60;1.00
7290;DHT22;63176;52.678;13.250;2022-10-22T02:39:31;12.60;1.00
7290;DHT22;63176;52.678;13.250;2022-10-22T02:41:57;12.50;1.00
7290;DHT22;63176;52.678;13.250;2022-10-22T02:44:24;12.50;1.00
7290;DHT22;63176;52.678;13.250;2022-10-22T02:46:50;12.50;1.00
7290;DHT22;63176;52.678;13.250;2022-10-22T02:49:16;12.50;1.00
7290;DHT22;63176;52.678;13.250;2022-10-22T02:51:42;12.50;1.00
7290;DHT22;63176;52.678;13.250;2022-10-22T02:54:07;12.50;1.00
7290;DHT22;63176;52.678;13.250;2022-10-22T02:56:33;12.50;1.00
7290;DHT22;63176;52.678;13.250;2022-10-22T02:58:59;12.50;1.00
7290;DHT22;63176;52.678;13.250;2022-10-22T03:01:24;12.50;1.00
7290;DHT22;63176;52.678;13.250;2022-10-22T03:03:50;12.50;1.00
7290;DHT22;63176;52.678;13.250;2022-10-22T03:06:16;12.50;1.00
7290;DHT22;63176;52.678;13.250;2022-10-22T03:08:42;12.50;1.00
7290;DHT22;63176;52.678;13.250;2022-10-22T03:11:08;12.50;1.00
7290;DHT22;63176;52.678;13.250;2022-10-22T03:13:33;12.50;1.00
7290;DHT22;63176;52.678;13.250;2022-10-22T03:15:59;12.50;1.00
7290;DHT22;63176;52.678;13.250;2022-10-22T03:18:24;12.50;1.00
7290;DHT22;63176;52.678;13.250;2022-10-22T03:23:46;12.50;1.00
7290;DHT22;63176;52.678;13.250;2022-10-22T03:26:13;12.50;1.00
7290;DHT22;63176;52.678;13.250;2022-10-22T03:28:39;12.50;1.00
7290;DHT22;63176;52.678;13.250;2022-10-22T03:31:06;12.50;1.00
7290;DHT22;63176;52.678;13.250;2022-10-22T03:33:31;12.50;1.00
7290;DHT22;63176;52.678;13.250;2022-10-22T03:35:57;12.50;1.00
7290;DHT22;63176;52.678;13.250;2022-10-22T03:38:23;12.60;1.00
7290;DHT22;63176;52.678;13.250;2022-10-22T03:40:49;12.60;1.00
7290;DHT22;63176;52.678;13.250;2022-10-22T03:43:16;12.50;1.00
7290;DHT22;63176;52.678;13.250;2022-10-22T03:45:42;12.50;1.00
7290;DHT22;63176;52.678;13.250;2022-10-22T03:48:07;12.50;1.00
7290;DHT22;63176;52.678;13.250;2022-10-22T03:50:33;12.60;1.00
7290;DHT22;63176;52.678;13.250;2022-10-22T03:52:58;12.50;1.00
7290;DHT22;63176;52.678;13.250;2022-10-22T03:55:24;12.60;1.00
7290;DHT22;63176;52.678;13.250;2022-10-22T03:57:50;12.50;1.00
7290;DHT22;63176;52.678;13.250;2022-10-22T04:00:15;12.50;99.90
7290;DHT22;63176;52.678;13.250;2022-10-22T04:02:41;12.50;99.90
7290;DHT22;63176;52.678;13.250;2022-10-22T04:05:07;12.50;99.90
7290;DHT22;63176;52.678;13.250;2022-10-22T04:07:33;12.50;99.90
7290;DHT22;63176;52.678;13.250;2022-10-22T04:09:58;12.50;99.90
7290;DHT22;63176;52.678;13.250;2022-10-22T04:12:24;12.50;99.90
7290;DHT22;63176;52.678;13.250;2022-10-22T04:14:49;12.50;99.90
7290;DHT22;63176;52.678;13.250;2022-10-22T04:17:15;12.50;99.90
7290;DHT22;63176;52.678;13.250;2022-10-22T04:19:41;12.50;99.90
7290;DHT22;63176;52.678;13.250;2022-10-22T04:22:07;12.40;99.90
7290;DHT22;63176;52.678;13.250;2022-10-22T04:24:32;12.40;99.90
7290;DHT22;63176;52.678;13.250;2022-10-22T04:26:58;12.40;99.90
7290;DHT22;63176;52.678;13.250;2022-10-22T04:29:24;12.50;99.90
7290;DHT22;63176;52.678;13.250;2022-10-22T04:31:49;12.40;99.90
7290;DHT22;63176;52.678;13.250;2022-10-22T04:34:15;12.50;99.90
7290;DHT22;63176;52.678;13.250;2022-10-22T04:36:40;12.40;99.90
7290;DHT22;63176;52.678;13.250;2022-10-22T04:39:06;12.40;99.90
7290;DHT22;63176;52.678;13.250;2022-10-22T04:41:34;12.40;99.90
7290;DHT22;63176;52.678;13.250;2022-10-22T04:44:01;12.50;99.90
7290;DHT22;63176;52.678;13.250;2022-10-22T04:46:29;12.50;99.90
7290;DHT22;63176;52.678;13.250;2022-10-22T04:48:55;12.50;99.90
7290;DHT22;63176;52.678;13.250;2022-10-22T04:51:23;12.50;99.90
7290;DHT22;63176;52.678;13.250;2022-10-22T04:53:48;12.50;99.90
7290;DHT22;63176;52.678;13.250;2022-10-22T04:56:18;12.50;99.90
7290;DHT22;63176;52.678;13.250;2022-10-22T04:58:48;12.50;99.90
7290;DHT22;63176;52.678;13.250;2022-10-22T05:01:15;12.50;99.90
7290;DHT22;63176;52.678;13.250;2022-10-22T05:03:41;12.50;99.90
7290;DHT22;63176;52.678;13.250;2022-10-22T05:06:08;12.50;99.90
7290;DHT22;63176;52.678;13.250;2022-10-22T05:08:33;12.50;99.90
7290;DHT22;63176;52.678;13.250;2022-10-22T05:10:59;12.50;99.90
7290;DHT22;63176;52.678;13.250;2022-10-22T05:13:25;12.50;99.90
7290;DHT22;63176;52.678;13.250;2022-10-22T05:15:50;12.40;54.90
7290;DHT22;63176;52.678;13.250;2022-10-22T05:18:16;12.40;1.00
7290;DHT22;63176;52.678;13.250;2022-10-22T05:20:42;12.40;1.00
7290;DHT22;63176;52.678;13.250;2022-10-22T05:23:08;12.40;1.00
7290;DHT22;63176;52.678;13.250;2022-10-22T05:25:39;12.30;1.00
7290;DHT22;63176;52.678;13.250;2022-10-22T05:28:05;12.30;1.00
7290;DHT22;63176;52.678;13.250;2022-10-22T05:30:31;12.30;1.00
7290;DHT22;63176;52.678;13.250;2022-10-22T05:32:56;12.20;1.00
7290;DHT22;63176;52.678;13.250;2022-10-22T05:35:22;12.20;1.00
7290;DHT22;63176;52.678;13.250;2022-10-22T05:37:47;12.20;1.00
7290;DHT22;63176;52.678;13.250;2022-10-22T05:40:13;12.20;99.90
7290;DHT22;63176;52.678;13.250;2022-10-22T05:42:38;12.20;99.90
7290;DHT22;63176;52.678;13.250;2022-10-22T05:45:05;12.20;99.90
7290;DHT22;63176;52.678;13.250;2022-10-22T05:47:30;12.10;99.90
7290;DHT22;63176;52.678;13.250;2022-10-22T05:49:56;12.10;99.90
7290;DHT22;63176;52.678;13.250;2022-10-22T05:52:22;12.10;99.90
7290;DHT22;63176;52.678;13.250;2022-10-22T05:54:48;12.10;99.90
7290;DHT22;63176;52.678;13.250;2022-10-22T05:57:14;12.10;99.90
7290;DHT22;63176;52.678;13.250;2022-10-22T05:59:39;12.10;99.90
7290;DHT22;63176;52.678;13.250;2022-10-22T06:02:06;12.20;99.90
7290;DHT22;63176;52.678;13.250;2022-10-22T06:04:33;12.20;99.90
7290;DHT22;63176;52.678;13.250;2022-10-22T06:06:58;12.20;99.90
7290;DHT22;63176;52.678;13.250;2022-10-22T06:09:30;12.20;99.90
7290;DHT22;63176;52.678;13.250;2022-10-22T06:11:57;12.20;99.90
7290;DHT22;63176;52.678;13.250;2022-10-22T06:14:24;12.20;99.90
7290;DHT22;63176;52.678;13.250;2022-10-22T06:16:50;12.20;99.90
7290;DHT22;63176;52.678;13.250;2022-10-22T06:19:18;12.20;99.90
7290;DHT22;63176;52.678;13.250;2022-10-22T06:21:44;12.20;99.90
7290;DHT22;63176;52.678;13.250;2022-10-22T06:24:10;12.20;99.90
7290;DHT22;63176;52.678;13.250;2022-10-22T06:26:36;12.20;99.90
7290;DHT22;63176;52.678;13.250;2022-10-22T06:29:02;12.20;99.90
7290;DHT22;63176;52.678;13.250;2022-10-22T06:31:28;12.20;99.90
7290;DHT22;63176;52.678;13.250;2022-10-22T06:33:55;12.20;99.90
7290;DHT22;63176;52.678;13.250;2022-10-22T06:36:22;12.30;1.00
7290;DHT22;63176;52.678;13.250;2022-10-22T06:38:52;12.30;1.00
7290;DHT22;63176;52.678;13.250;2022-10-22T06:41:18;12.30;1.00
7290;DHT22;63176;52.678;13.250;2022-10-22T06:43:44;12.30;1.00
7290;DHT22;63176;52.678;13.250;2022-10-22T06:46:13;12.40;1.00
7290;DHT22;63176;52.678;13.250;2022-10-22T06:48:40;12.40;1.00
7290;DHT22;63176;52.678;13.250;2022-10-22T06:51:11;12.40;1.00
7290;DHT22;63176;52.678;13.250;2022-10-22T06:53:38;12.40;1.00
7290;DHT22;63176;52.678;13.250;2022-10-22T06:56:13;12.50;1.00
7290;DHT22;63176;52.678;13.250;2022-10-22T06:58:39;12.50;1.00
7290;DHT22;63176;52.678;13.250;2022-10-22T07:01:13;12.50;99.90
7290;DHT22;63176;52.678;13.250;2022-10-22T07:03:39;12.60;99.90
7290;DHT22;63176;52.678;13.250;2022-10-22T07:06:07;12.60;99.90
7290;DHT22;63176;52.678;13.250;2022-10-22T07:08:34;12.70;99.90
7290;DHT22;63176;52.678;13.250;2022-10-22T07:11:15;12.70;1.00
7290;DHT22;63176;52.678;13.250;2022-10-22T07:13:41;12.80;1.00
7290;DHT22;63176;52.678;13.250;2022-10-22T07:16:08;12.80;1.00
7290;DHT22;63176;52.678;13.250;2022-10-22T07:18:35;12.90;1.00
7290;DHT22;63176;52.678;13.250;2022-10-22T07:21:01;13.00;1.00
7290;DHT22;63176;52.678;13.250;2022-10-22T07:23:28;13.00;1.00
7290;DHT22;63176;52.678;13.250;2022-10-22T07:25:54;13.00;1.00
7290;DHT22;63176;52.678;13.250;2022-10-22T07:28:20;13.10;1.00
7290;DHT22;63176;52.678;13.250;2022-10-22T07:30:46;13.10;1.00
7290;DHT22;63176;52.678;13.250;2022-10-22T07:33:12;13.20;5.80
7290;DHT22;63176;52.678;13.250;2022-10-22T07:35:38;13.20;29.50
7290;DHT22;63176;52.678;13.250;2022-10-22T07:38:04;13.30;97.90
7290;DHT22;63176;52.678;13.250;2022-10-22T07:40:30;13.30;99.90
7290;DHT22;63176;52.678;13.250;2022-10-22T07:42:56;13.40;99.90
7290;DHT22;63176;52.678;13.250;2022-10-22T07:45:22;13.40;99.90
7290;DHT22;63176;52.678;13.250;2022-10-22T07:47:47;13.40;99.90
7290;DHT22;63176;52.678;13.250;2022-10-22T07:50:13;13.50;99.90
7290;DHT22;63176;52.678;13.250;2022-10-22T07:52:39;13.50;99.90
7290;DHT22;63176;52.678;13.250;2022-10-22T07:55:05;13.60;99.90
7290;DHT22;63176;52.678;13.250;2022-10-22T07:57:31;13.60;99.90
7290;DHT22;63176;52.678;13.250;2022-10-22T07:59:56;13.60;99.90
7290;DHT22;63176;52.678;13.250;2022-10-22T08:02:23;13.60;99.90
7290;DHT22;63176;52.678;13.250;2022-10-22T08:04:49;13.70;99.90
7290;DHT22;63176;52.678;13.250;2022-10-22T08:07:14;13.70;99.90
7290;DHT22;63176;52.678;13.250;2022-10-22T08:09:40;13.70;99.90
7290;DHT22;63176;52.678;13.250;2022-10-22T08:12:06;13.80;99.90
7290;DHT22;63176;52.678;13.250;2022-10-22T08:14:31;13.80;99.90
7290;DHT22;63176;52.678;13.250;2022-10-22T08:16:57;13.80;99.90
7290;DHT22;63176;52.678;13.250;2022-10-22T08:19:23;13.80;99.90
7290;DHT22;63176;52.678;13.250;2022-10-22T08:21:49;13.80;99.90
7290;DHT22;63176;52.678;13.250;2022-10-22T08:24:15;13.80;92.40
7290;DHT22;63176;52.678;13.250;2022-10-22T08:26:40;13.80;79.20
7290;DHT22;63176;52.678;13.250;2022-10-22T08:29:08;13.80;99.90
7290;DHT22;63176;52.678;13.250;2022-10-22T08:31:34;13.90;99.90
7290;DHT22;63176;52.678;13.250;2022-10-22T08:33:59;13.90;99.90
7290;DHT22;63176;52.678;13.250;2022-10-22T08:36:25;13.90;99.90
7290;DHT22;63176;52.678;13.250;2022-10-22T08:38:51;14.00;99.90
7290;DHT22;63176;52.678;13.250;2022-10-22T08:41:21;14.00;99.90
7290;DHT22;63176;52.678;13.250;2022-10-22T08:48:51;14.10;99.90
7290;DHT22;63176;52.678;13.250;2022-10-22T08:51:23;14.20;99.90
7290;DHT22;63176;52.678;13.250;2022-10-22T08:54:16;14.20;99.90
7290;DHT22;63176;52.678;13.250;2022-10-22T08:56:46;14.30;99.90
7290;DHT22;63176;52.678;13.250;2022-10-22T09:07:50;14.40;1.00
7290;DHT22;63176;52.678;13.250;2022-10-22T09:10:18;14.40;99.90
7290;DHT22;63176;52.678;13.250;2022-10-22T09:12:46;14.40;99.90
7290;DHT22;63176;52.678;13.250;2022-10-22T09:15:17;14.40;1.00
7290;DHT22;63176;52.678;13.250;2022-10-22T09:25:50;14.40;1.00
7290;DHT22;63176;52.678;13.250;2022-10-22T09:28:17;14.50;64.50
7290;DHT22;63176;52.678;13.250;2022-10-22T09:30:43;14.50;99.90
7290;DHT22;63176;52.678;13.250;2022-10-22T09:33:14;14.60;99.90
7290;DHT22;63176;52.678;13.250;2022-10-22T09:36:01;14.70;99.90
7290;DHT22;63176;52.678;13.250;2022-10-22T09:38:46;14.70;1.00
7290;DHT22;63176;52.678;13.250;2022-10-22T09:41:13;14.80;1.00
7290;DHT22;63176;52.678;13.250;2022-10-22T09:43:39;14.80;1.00
7290;DHT22;63176;52.678;13.250;2022-10-22T09:46:07;14.80;1.00
7290;DHT22;63176;52.678;13.250;2022-10-22T09:48:41;14.80;99.90
7290;DHT22;63176;52.678;13.250;2022-10-22T09:51:20;14.80;1.00
7290;DHT22;63176;52.678;13.250;2022-10-22T09:54:01;14.80;1.00
7290;DHT22;63176;52.678;13.250;2022-10-22T09:56:32;14.80;1.00
7290;DHT22;63176;52.678;13.250;2022-10-22T09:59:00;14.80;1.00
7290;DHT22;63176;52.678;13.250;2022-10-22T10:01:33;14.80;1.00
7290;DHT22;63176;52.678;13.250;2022-10-22T10:04:04;14.80;1.00
7290;DHT22;63176;52.678;13.250;2022-10-22T10:06:32;14.80;1.00
7290;DHT22;63176;52.678;13.250;2022-10-22T10:08:58;14.90;1.00
7290;DHT22;63176;52.678;13.250;2022-10-22T10:11:33;14.90;1.00
7290;DHT22;63176;52.678;13.250;2022-10-22T10:30:42;15.00;1.00
7290;DHT22;63176;52.678;13.250;2022-10-22T10:49:28;15.40;1.00
7290;DHT22;63176;52.678;13.250;2022-10-22T10:52:15;15.50;1.00
7290;DHT22;63176;52.678;13.250;2022-10-22T11:00:18;15.80;99.90
7290;DHT22;63176;52.678;13.250;2022-10-22T11:05:38;16.00;1.00
7290;DHT22;63176;52.678;13.250;2022-10-22T11:08:13;16.00;1.00
7290;DHT22;63176;52.678;13.250;2022-10-22T11:10:47;16.10;1.00
7290;DHT22;63176;52.678;13.250;2022-10-22T11:13:35;16.10;1.00
7290;DHT22;63176;52.678;13.250;2022-10-22T11:19:08;16.20;1.00
7290;DHT22;63176;52.678;13.250;2022-10-22T11:21:56;16.30;1.00
7290;DHT22;63176;52.678;13.250;2022-10-22T11:24:45;16.40;1.00
7290;DHT22;63176;52.678;13.250;2022-10-22T11:27:26;16.40;1.00
7290;DHT22;63176;52.678;13.250;2022-10-22T11:30:12;16.40;1.00
7290;DHT22;63176;52.678;13.250;2022-10-22T11:32:39;16.40;1.00
7290;DHT22;63176;52.678;13.250;2022-10-22T11:35:10;16.50;1.00
7290;DHT22;63176;52.678;13.250;2022-10-22T11:37:37;16.50;1.00
7290;DHT22;63176;52.678;13.250;2022-10-22T11:40:18;16.60;1.00
7290;DHT22;63176;52.678;13.250;2022-10-22T11:42:54;16.60;1.00
7290;DHT22;63176;52.678;13.250;2022-10-22T11:48:17;16.50;1.00
7290;DHT22;63176;52.678;13.250;2022-10-22T11:50:48;16.60;1.00
7290;DHT22;63176;52.678;13.250;2022-10-22T11:55:52;16.70;1.00
7290;DHT22;63176;52.678;13.250;2022-10-22T12:08:30;16.90;99.90
7290;DHT22;63176;52.678;13.250;2022-10-22T12:17:04;16.80;99.90
7290;DHT22;63176;52.678;13.250;2022-10-22T12:22:32;16.90;99.90
7290;DHT22;63176;52.678;13.250;2022-10-22T12:25:11;17.00;99.90
7290;DHT22;63176;52.678;13.250;2022-10-22T12:27:41;17.10;99.90
7290;DHT22;63176;52.678;13.250;2022-10-22T12:32:43;17.30;99.90
7290;DHT22;63176;52.678;13.250;2022-10-22T12:35:21;17.40;99.90
7290;DHT22;63176;52.678;13.250;2022-10-22T12:37:51;17.40;99.90
7290;DHT22;63176;52.678;13.250;2022-10-22T12:40:24;17.40;99.90
7290;DHT22;63176;52.678;13.250;2022-10-22T12:42:52;17.40;99.90
7290;DHT22;63176;52.678;13.250;2022-10-22T12:45:19;17.40;99.90
7290;DHT22;63176;52.678;13.250;2022-10-22T12:47:50;17.40;99.90
7290;DHT22;63176;52.678;13.250;2022-10-22T12:50:24;17.50;99.90
7290;DHT22;63176;52.678;13.250;2022-10-22T12:52:53;17.40;99.90
7290;DHT22;63176;52.678;13.250;2022-10-22T12:55:21;17.50;99.90
7290;DHT22;63176;52.678;13.250;2022-10-22T12:57:50;17.50;99.90
7290;DHT22;63176;52.678;13.250;2022-10-22T13:00:28;17.60;99.90
7290;DHT22;63176;52.678;13.250;2022-10-22T13:02:58;17.60;99.90
7290;DHT22;63176;52.678;13.250;2022-10-22T13:05:26;17.60;99.90
7290;DHT22;63176;52.678;13.250;2022-10-22T13:08:00;17.70;99.90
7290;DHT22;63176;52.678;13.250;2022-10-22T13:10:33;17.70;99.90
7290;DHT22;63176;52.678;13.250;2022-10-22T13:12:59;17.70;99.90
7290;DHT22;63176;52.678;13.250;2022-10-22T13:18:21;17.70;99.90
7290;DHT22;63176;52.678;13.250;2022-10-22T13:20:54;17.70;99.90
7290;DHT22;63176;52.678;13.250;2022-10-22T13:23:25;17.60;99.90
7290;DHT22;63176;52.678;13.250;2022-10-22T13:26:08;17.60;99.90
7290;DHT22;63176;52.678;13.250;2022-10-22T13:28:37;17.60;99.90
7290;DHT22;63176;52.678;13.250;2022-10-22T13:31:17;17.60;99.90
7290;DHT22;63176;52.678;13.250;2022-10-22T13:33:45;17.60;99.90
7290;DHT22;63176;52.678;13.250;2022-10-22T13:36:15;17.60;99.90
7290;DHT22;63176;52.678;13.250;2022-10-22T13:38:42;17.70;99.90
7290;DHT22;63176;52.678;13.250;2022-10-22T13:41:37;17.70;99.90
7290;DHT22;63176;52.678;13.250;2022-10-22T13:44:03;17.70;99.90
7290;DHT22;63176;52.678;13.250;2022-10-22T13:46:28;17.70;99.90
7290;DHT22;63176;52.678;13.250;2022-10-22T13:48:55;17.70;99.90
7290;DHT22;63176;52.678;13.250;2022-10-22T13:51:26;17.70;99.90
7290;DHT22;63176;52.678;13.250;2022-10-22T13:53:55;17.70;99.90
7290;DHT22;63176;52.678;13.250;2022-10-22T13:56:21;17.70;99.90
7290;DHT22;63176;52.678;13.250;2022-10-22T13:58:47;17.60;99.90
7290;DHT22;63176;52.678;13.250;2022-10-22T14:03:45;17.50;99.90
7290;DHT22;63176;52.678;13.250;2022-10-22T14:06:13;17.60;99.90
7290;DHT22;63176;52.678;13.250;2022-10-22T14:08:40;17.70;99.90
7290;DHT22;63176;52.678;13.250;2022-10-22T14:11:11;17.70;99.90
7290;DHT22;63176;52.678;13.250;2022-10-22T14:13:37;17.70;99.90
7290;DHT22;63176;52.678;13.250;2022-10-22T14:16:06;17.80;99.90
7290;DHT22;63176;52.678;13.250;2022-10-22T14:18:33;17.80;99.90
7290;DHT22;63176;52.678;13.250;2022-10-22T14:21:01;17.80;99.90
7290;DHT22;63176;52.678;13.250;2022-10-22T14:23:30;17.70;99.90
7290;DHT22;63176;52.678;13.250;2022-10-22T14:25:58;17.70;99.90
7290;DHT22;63176;52.678;13.250;2022-10-22T14:28:23;17.60;99.90
7290;DHT22;63176;52.678;13.250;2022-10-22T14:30:50;17.60;99.90
7290;DHT22;63176;52.678;13.250;2022-10-22T14:33:17;17.60;99.90
7290;DHT22;63176;52.678;13.250;2022-10-22T14:35:43;17.60;99.90
7290;DHT22;63176;52.678;13.250;2022-10-22T14:38:09;17.50;99.90
7290;DHT22;63176;52.678;13.250;2022-10-22T14:40:36;17.50;99.90
7290;DHT22;63176;52.678;13.250;2022-10-22T14:43:08;17.50;99.90
7290;DHT22;63176;52.678;13.250;2022-10-22T14:45:34;17.40;99.90
7290;DHT22;63176;52.678;13.250;2022-10-22T14:48:00;17.30;99.90
7290;DHT22;63176;52.678;13.250;2022-10-22T14:50:26;17.20;99.90
7290;DHT22;63176;52.678;13.250;2022-10-22T14:52:52;17.20;99.90
7290;DHT22;63176;52.678;13.250;2022-10-22T14:55:18;17.20;99.90
7290;DHT22;63176;52.678;13.250;2022-10-22T14:57:44;17.10;99.90
7290;DHT22;63176;52.678;13.250;2022-10-22T15:00:16;16.90;99.90
7290;DHT22;63176;52.678;13.250;2022-10-22T15:02:42;16.90;99.90
7290;DHT22;63176;52.678;13.250;2022-10-22T15:05:08;16.80;99.90
7290;DHT22;63176;52.678;13.250;2022-10-22T15:07:35;16.60;99.90
7290;DHT22;63176;52.678;13.250;2022-10-22T15:10:01;16.50;99.90
7290;DHT22;63176;52.678;13.250;2022-10-22T15:12:26;16.40;99.90
7290;DHT22;63176;52.678;13.250;2022-10-22T15:14:52;16.30;99.90
7290;DHT22;63176;52.678;13.250;2022-10-22T15:17:18;16.20;99.90
7290;DHT22;63176;52.678;13.250;2022-10-22T15:19:43;16.10;99.90
7290;DHT22;63176;52.678;13.250;2022-10-22T15:22:10;16.00;99.90
7290;DHT22;63176;52.678;13.250;2022-10-22T15:24:36;16.00;99.90
7290;DHT22;63176;52.678;13.250;2022-10-22T15:27:01;15.90;99.90
7290;DHT22;63176;52.678;13.250;2022-10-22T15:29:31;15.80;99.90
7290;DHT22;63176;52.678;13.250;2022-10-22T15:31:58;15.70;99.90
7290;DHT22;63176;52.678;13.250;2022-10-22T15:34:27;15.60;99.90
7290;DHT22;63176;52.678;13.250;2022-10-22T15:36:59;15.50;99.90
7290;DHT22;63176;52.678;13.250;2022-10-22T15:39:25;15.50;99.90
7290;DHT22;63176;52.678;13.250;2022-10-22T15:41:52;15.40;99.90
7290;DHT22;63176;52.678;13.250;2022-10-22T15:44:21;15.30;99.90
7290;DHT22;63176;52.678;13.250;2022-10-22T15:46:47;15.30;99.90
7290;DHT22;63176;52.678;13.250;2022-10-22T15:49:13;15.20;99.90
7290;DHT22;63176;52.678;13.250;2022-10-22T15:51:39;15.10;99.90
7290;DHT22;63176;52.678;13.250;2022-10-22T15:54:05;15.00;99.90
7290;DHT22;63176;52.678;13.250;2022-10-22T15:56:31;14.90;99.90
7290;DHT22;63176;52.678;13.250;2022-10-22T15:59:01;14.90;99.90
7290;DHT22;63176;52.678;13.250;2022-10-22T16:01:28;14.80;99.90
7290;DHT22;63176;52.678;13.250;2022-10-22T16:03:54;14.70;99.90
7290;DHT22;63176;52.678;13.250;2022-10-22T16:06:46;14.70;99.90
7290;DHT22;63176;52.678;13.250;2022-10-22T16:09:17;14.60;99.90
7290;DHT22;63176;52.678;13.250;2022-10-22T16:11:44;14.50;99.90
7290;DHT22;63176;52.678;13.250;2022-10-22T16:14:11;14.50;99.90
7290;DHT22;63176;52.678;13.250;2022-10-22T16:16:41;14.40;99.90
7290;DHT22;63176;52.678;13.250;2022-10-22T16:19:12;14.30;99.90
7290;DHT22;63176;52.678;13.250;2022-10-22T16:21:38;14.30;99.90
7290;DHT22;63176;52.678;13.250;2022-10-22T16:24:05;14.20;99.90
7290;DHT22;63176;52.678;13.250;2022-10-22T16:26:31;14.20;99.90
7290;DHT22;63176;52.678;13.250;2022-10-22T16:28:57;14.10;99.90
7290;DHT22;63176;52.678;13.250;2022-10-22T16:31:23;14.00;99.90
7290;DHT22;63176;52.678;13.250;2022-10-22T16:33:49;14.00;99.90
7290;DHT22;63176;52.678;13.250;2022-10-22T16:36:17;13.90;99.90
7290;DHT22;63176;52.678;13.250;2022-10-22T16:38:44;13.90;99.90
7290;DHT22;63176;52.678;13.250;2022-10-22T16:43:37;13.80;99.90
7290;DHT22;63176;52.678;13.250;2022-10-22T16:46:03;13.70;99.90
7290;DHT22;63176;52.678;13.250;2022-10-22T16:48:31;13.70;99.90
7290;DHT22;63176;52.678;13.250;2022-10-22T16:50:57;13.70;99.90
7290;DHT22;63176;52.678;13.250;2022-10-22T16:53:23;13.60;99.90
7290;DHT22;63176;52.678;13.250;2022-10-22T16:55:49;13.60;99.90
7290;DHT22;63176;52.678;13.250;2022-10-22T16:58:14;13.50;99.90
7290;DHT22;63176;52.678;13.250;2022-10-22T17:00:40;13.50;99.90
7290;DHT22;63176;52.678;13.250;2022-10-22T17:03:06;13.50;99.90
7290;DHT22;63176;52.678;13.250;2022-10-22T17:05:34;13.40;99.90
7290;DHT22;63176;52.678;13.250;2022-10-22T17:08:00;13.40;99.90
7290;DHT22;63176;52.678;13.250;2022-10-22T17:10:26;13.30;99.90
7290;DHT22;63176;52.678;13.250;2022-10-22T17:12:52;13.30;99.90
7290;DHT22;63176;52.678;13.250;2022-10-22T17:15:17;13.30;99.90
7290;DHT22;63176;52.678;13.250;2022-10-22T17:17:43;13.20;99.90
7290;DHT22;63176;52.678;13.250;2022-10-22T17:20:13;13.30;99.90
7290;DHT22;63176;52.678;13.250;2022-10-22T17:22:39;13.30;99.90
7290;DHT22;63176;52.678;13.250;2022-10-22T17:25:12;13.30;99.90
7290;DHT22;63176;52.678;13.250;2022-10-22T17:27:38;13.20;99.90
7290;DHT22;63176;52.678;13.250;2022-10-22T17:30:05;13.20;99.90
7290;DHT22;63176;52.678;13.250;2022-10-22T17:32:34;13.20;99.90
7290;DHT22;63176;52.678;13.250;2022-10-22T17:35:00;13.10;99.90
7290;DHT22;63176;52.678;13.250;2022-10-22T17:37:26;13.10;99.90
7290;DHT22;63176;52.678;13.250;2022-10-22T17:39:51;13.10;99.90
7290;DHT22;63176;52.678;13.250;2022-10-22T17:42:17;13.00;99.90
7290;DHT22;63176;52.678;13.250;2022-10-22T17:44:42;13.00;99.90
7290;DHT22;63176;52.678;13.250;2022-10-22T17:47:08;12.90;99.90
7290;DHT22;63176;52.678;13.250;2022-10-22T17:49:34;12.90;99.90
7290;DHT22;63176;52.678;13.250;2022-10-22T17:51:59;12.90;99.90